Terminal Aerodrome Forecast
Issued by NWS

Home | Current Version | Previous Version | Text Only | Print | Product List | Glossary On
Versions: 1 2 3 4 5 6 7 8 9 10 11 12 13 14 15 16 17 18 19 20 21 22 23 24 25 26
681
FTUS43 KGRB 172336
TAFCWA
TAF
KCWA 172336Z 1800/1824 28015G25KT P6SM VCSH SCT012 OVC028
      TEMPO 1800/1801 5SM -RA BKN008 OVC012
     FM180100 29012G20KT P6SM OVC012
     FM181400 29012G18KT P6SM BKN025
     FM181600 30011G18KT P6SM SCT025 BKN040=

USA.gov is the U.S. government's official web portal to all federal, state and local government web resources and services.